createdAt,value
2022-09-15T00:00:53.886Z,96730.38
2022-09-15T00:01:55.524Z,96728.50
2022-09-15T00:02:57.232Z,96735.47
2022-09-15T00:03:58.809Z,96738.59
2022-09-15T00:05:00.855Z,96734.69
2022-09-15T00:06:02.887Z,96732.00
2022-09-15T00:07:04.538Z,96730.84
2022-09-15T00:08:06.131Z,96723.84
2022-09-15T00:09:07.671Z,96720.72
2022-09-15T00:10:10.382Z,96723.84
2022-09-15T00:11:18.406Z,96725.41
2022-09-15T00:12:19.966Z,96728.47
2022-09-15T00:13:22.700Z,96726.19
2022-09-15T00:14:24.442Z,96726.94
2022-09-15T00:15:26.089Z,96724.59
2022-09-15T00:16:30.959Z,96725.38
2022-09-15T00:17:32.563Z,96717.22
2022-09-15T00:18:35.529Z,96715.28
2022-09-15T00:19:37.203Z,96712.59
2022-09-15T00:20:43.310Z,96711.44
2022-09-15T00:21:44.883Z,96713.75
2022-09-15T00:22:47.680Z,96717.25
2022-09-15T00:23:49.984Z,96715.31
2022-09-15T00:24:51.509Z,96716.47
2022-09-15T00:25:53.416Z,96721.50
2022-09-15T00:26:55.186Z,96719.97
2022-09-15T00:27:56.800Z,96719.94
2022-09-15T00:29:00.369Z,96723.03
2022-09-15T00:30:01.901Z,96723.44
2022-09-15T00:31:09.756Z,96726.91
2022-09-15T00:32:11.343Z,96725.38
2022-09-15T00:33:14.602Z,96726.16
2022-09-15T00:34:16.333Z,96724.19
2022-09-15T00:35:17.859Z,96722.25
2022-09-15T00:36:20.857Z,96725.72
2022-09-15T00:37:22.550Z,96724.59
2022-09-15T00:38:24.038Z,96728.47
2022-09-15T00:39:25.638Z,96717.59
2022-09-15T00:40:27.549Z,96724.59
2022-09-15T00:41:29.626Z,96725.38
2022-09-15T00:42:31.181Z,96724.22
2022-09-15T00:43:53.861Z,96726.94
2022-09-15T00:44:58.566Z,96729.66
2022-09-15T00:46:00.186Z,96722.28
2022-09-15T00:47:18.869Z,96723.44
2022-09-15T00:48:22.913Z,96721.06
2022-09-15T00:49:31.740Z,96716.78
2022-09-15T00:50:34.459Z,96726.09
2022-09-15T00:51:42.628Z,96726.03
2022-09-15T00:52:52.184Z,96731.44
2022-09-15T00:53:54.158Z,96731.44
2022-09-15T00:55:05.227Z,96736.78
2022-09-15T00:56:09.546Z,96738.97
2022-09-15T00:57:19.784Z,96732.69
2022-09-15T00:58:25.535Z,96725.72
2022-09-15T00:59:31.918Z,96730.34
2022-09-15T01:00:35.251Z,96726.38
2022-09-15T01:01:36.854Z,96724.78
2022-09-15T01:02:40.049Z,96730.91
2022-09-15T01:03:42.398Z,96720.44
2022-09-15T01:04:44.268Z,96718.84
2022-09-15T01:05:51.418Z,96724.66
2022-09-15T01:06:58.440Z,96720.00
2022-09-15T01:08:07.067Z,96722.28
2022-09-15T01:09:26.950Z,96723.06
2022-09-15T01:10:34.899Z,96729.97
2022-09-15T01:11:36.657Z,96723.81
2022-09-15T01:12:40.460Z,96719.94
2022-09-15T01:13:42.044Z,96727.75
2022-09-15T01:14:43.545Z,96721.28
2022-09-15T01:15:47.855Z,96728.69
2022-09-15T01:17:07.148Z,96727.94
2022-09-15T01:18:58.557Z,96721.00
2022-09-15T01:20:33.795Z,96731.13
2022-09-15T01:21:49.892Z,96726.50
2022-09-15T01:23:32.947Z,96724.94
2022-09-15T01:25:11.690Z,96727.59
2022-09-15T01:26:35.280Z,96727.22
2022-09-15T01:27:58.176Z,96722.66
2022-09-15T01:29:44.175Z,96729.69
2022-09-15T01:31:29.120Z,96728.63
2022-09-15T01:33:04.148Z,96724.72
2022-09-15T01:34:17.551Z,96723.47
2022-09-15T01:35:57.597Z,96729.25
2022-09-15T01:37:14.790Z,96724.97
2022-09-15T01:38:33.151Z,96724.16
2022-09-15T01:39:40.084Z,96719.94
2022-09-15T01:40:55.629Z,96720.78
2022-09-15T01:42:00.853Z,96722.00
2022-09-15T01:43:05.006Z,96722.78
2022-09-15T01:44:14.684Z,96722.03
2022-09-15T01:45:29.296Z,96723.56
2022-09-15T01:46:37.117Z,96718.94
2022-09-15T01:47:39.970Z,96722.00
2022-09-15T01:48:42.799Z,96712.66
2022-09-15T01:49:52.774Z,96711.53
2022-09-15T01:50:57.622Z,96718.88
2022-09-15T01:51:59.274Z,96719.69
2022-09-15T01:53:08.142Z,96717.41
2022-09-15T01:54:11.161Z,96712.75
2022-09-15T01:55:27.001Z,96712.81
2022-09-15T01:56:28.793Z,96721.72
2022-09-15T01:57:30.498Z,96710.47
2022-09-15T01:58:33.352Z,96723.25
2022-09-15T01:59:34.885Z,96717.44
2022-09-15T02:00:41.627Z,96721.72
2022-09-15T02:01:51.870Z,96722.88
2022-09-15T02:03:00.585Z,96707.38
2022-09-15T02:04:15.789Z,96715.16
2022-09-15T02:05:30.186Z,96711.28
2022-09-15T02:06:39.779Z,96706.63
2022-09-15T02:07:49.385Z,96703.91
2022-09-15T02:08:57.507Z,96705.78
2022-09-15T02:10:11.472Z,96703.44
2022-09-15T02:11:28.070Z,96697.94
2022-09-15T02:13:01.688Z,96707.09
2022-09-15T02:14:36.310Z,96706.25
2022-09-15T02:15:48.424Z,96696.78
2022-09-15T02:16:54.174Z,96701.75
2022-09-15T02:17:58.059Z,96699.09
2022-09-15T02:19:04.438Z,96702.19
2022-09-15T02:20:35.224Z,96705.38
2022-09-15T02:21:59.227Z,96707.03
2022-09-15T02:23:08.485Z,96711.72
2022-09-15T02:24:19.124Z,96705.50
2022-09-15T02:25:28.873Z,96712.47
2022-09-15T02:26:33.405Z,96708.59
2022-09-15T02:27:44.208Z,96710.47
2022-09-15T02:28:48.954Z,96700.75
2022-09-15T02:29:54.258Z,96699.94
2022-09-15T02:30:58.800Z,96691.41
2022-09-15T02:32:07.070Z,96695.63
2022-09-15T02:33:14.328Z,96698.34
2022-09-15T02:34:30.389Z,96706.53
2022-09-15T02:35:36.116Z,96700.38
2022-09-15T02:36:39.251Z,96702.75
2022-09-15T02:37:41.237Z,96704.69
2022-09-15T02:38:47.257Z,96707.81
2022-09-15T02:39:58.011Z,96704.72
2022-09-15T02:41:00.014Z,96706.25
2022-09-15T02:42:02.580Z,96708.59
2022-09-15T02:43:05.488Z,96713.28
2022-09-15T02:44:09.423Z,96714.88
2022-09-15T02:45:11.091Z,96720.31
2022-09-15T02:46:14.036Z,96714.53
2022-09-15T02:47:15.597Z,96711.06
2022-09-15T02:48:17.681Z,96714.50
2022-09-15T02:49:20.167Z,96714.81
2022-09-15T02:50:21.742Z,96712.06
2022-09-15T02:51:23.525Z,96705.09
2022-09-15T02:52:26.203Z,96702.38
2022-09-15T02:53:27.769Z,96700.81
2022-09-15T02:54:29.359Z,96702.38
2022-09-15T02:55:30.967Z,96700.47
2022-09-15T02:56:32.495Z,96691.56
2022-09-15T02:57:34.035Z,96695.09
2022-09-15T02:58:35.890Z,96697.03
2022-09-15T02:59:56.359Z,96695.50
2022-09-15T03:00:58.140Z,96695.53
2022-09-15T03:02:00.349Z,96699.44
2022-09-15T03:03:01.940Z,96698.66
2022-09-15T03:04:04.397Z,96705.63
2022-09-15T03:05:07.719Z,96703.31
2022-09-15T03:06:18.469Z,96700.59
2022-09-15T03:07:20.259Z,96702.16
2022-09-15T03:08:21.819Z,96704.94
2022-09-15T03:09:23.341Z,96704.53
2022-09-15T03:10:26.472Z,96706.44
2022-09-15T03:11:29.747Z,96700.22
2022-09-15T03:12:31.460Z,96704.84
2022-09-15T03:13:33.723Z,96704.06
2022-09-15T03:14:35.535Z,96702.94
2022-09-15T03:15:37.104Z,96709.50
2022-09-15T03:16:38.654Z,96705.63
2022-09-15T03:17:42.920Z,96703.31
2022-09-15T03:18:44.415Z,96697.88
2022-09-15T03:19:46.283Z,96694.78
2022-09-15T03:20:48.151Z,96700.94
2022-09-15T03:21:49.668Z,96696.97
2022-09-15T03:22:51.382Z,96691.34
2022-09-15T03:23:53.010Z,96694.75
2022-09-15T03:24:54.506Z,96692.81
2022-09-15T03:25:56.487Z,96695.97
2022-09-15T03:26:58.378Z,96696.41
2022-09-15T03:27:59.871Z,96702.31
2022-09-15T03:29:01.412Z,96706.22
2022-09-15T03:30:04.332Z,96702.38
2022-09-15T03:31:07.696Z,96692.34
2022-09-15T03:32:09.247Z,96702.41
2022-09-15T03:33:10.759Z,96698.19
2022-09-15T03:34:12.293Z,96696.63
2022-09-15T03:35:13.867Z,96697.03
2022-09-15T03:36:15.860Z,96696.69
2022-09-15T03:37:17.471Z,96694.75
2022-09-15T03:38:19.707Z,96698.25
2022-09-15T03:39:21.367Z,96699.06
2022-09-15T03:40:22.912Z,96695.16
2022-09-15T03:41:25.831Z,96694.78
2022-09-15T03:42:27.370Z,96695.53
2022-09-15T03:43:30.548Z,96693.59
2022-09-15T03:44:32.244Z,96687.78
2022-09-15T03:45:33.833Z,96688.94
2022-09-15T03:46:35.701Z,96693.22
2022-09-15T03:47:37.230Z,96685.47
2022-09-15T03:48:40.572Z,96688.50
2022-09-15T03:49:42.129Z,96683.72
2022-09-15T03:50:43.753Z,96696.53
2022-09-15T03:51:45.291Z,96696.56
2022-09-15T03:52:46.841Z,96693.50
2022-09-15T03:53:48.397Z,96701.22
2022-09-15T03:54:50.147Z,96700.81
2022-09-15T03:55:52.252Z,96703.13
2022-09-15T03:56:53.802Z,96702.69
2022-09-15T03:57:55.896Z,96699.97
2022-09-15T03:58:59.069Z,96708.50
2022-09-15T04:00:01.283Z,96709.31
2022-09-15T04:01:03.038Z,96706.63
2022-09-15T04:02:04.748Z,96704.66
2022-09-15T04:03:06.866Z,96712.31
2022-09-15T04:04:08.439Z,96711.09
2022-09-15T04:05:10.486Z,96702.88
2022-09-15T04:06:12.327Z,96701.22
2022-09-15T04:07:13.851Z,96704.19
2022-09-15T04:08:15.387Z,96711.78
2022-09-15T04:09:16.896Z,96703.94
2022-09-15T04:10:18.645Z,96710.00
2022-09-15T04:11:22.774Z,96703.78
2022-09-15T04:12:24.470Z,96712.25
2022-09-15T04:13:28.695Z,96711.44
2022-09-15T04:14:30.547Z,96712.59
2022-09-15T04:15:32.075Z,96712.25
2022-09-15T04:16:34.192Z,96715.75
2022-09-15T04:17:36.373Z,96718.94
2022-09-15T04:18:38.269Z,96716.22
2022-09-15T04:19:40.355Z,96721.72
2022-09-15T04:20:41.899Z,96733.34
2022-09-15T04:21:43.555Z,96728.25
2022-09-15T04:22:45.154Z,96731.75
2022-09-15T04:23:47.740Z,96731.78
2022-09-15T04:24:49.710Z,96734.16
2022-09-15T04:26:00.238Z,96736.53
2022-09-15T04:27:01.881Z,96738.91
2022-09-15T04:28:03.466Z,96731.19
2022-09-15T04:29:13.365Z,96735.75
2022-09-15T04:30:15.036Z,96725.81
2022-09-15T04:31:17.795Z,96729.19
2022-09-15T04:32:20.586Z,96722.66
2022-09-15T04:33:22.479Z,96728.38
2022-09-15T04:34:24.653Z,96725.28
2022-09-15T04:35:26.281Z,96728.72
2022-09-15T04:36:29.002Z,96732.97
2022-09-15T04:37:31.333Z,96734.53
2022-09-15T04:38:33.592Z,96732.97
2022-09-15T04:39:35.136Z,96733.06
2022-09-15T04:40:36.907Z,96730.69
2022-09-15T04:41:38.403Z,96732.97
2022-09-15T04:42:40.054Z,96738.41
2022-09-15T04:43:43.392Z,96739.22
2022-09-15T04:44:44.901Z,96738.50
2022-09-15T04:45:46.422Z,96736.94
2022-09-15T04:46:48.819Z,96733.88
2022-09-15T04:47:51.643Z,96736.97
2022-09-15T04:48:54.026Z,96737.72
2022-09-15T04:49:55.619Z,96737.72
2022-09-15T04:51:18.958Z,96735.34
2022-09-15T04:52:20.549Z,96734.53
2022-09-15T04:53:22.186Z,96738.41
2022-09-15T04:54:23.821Z,96736.66
2022-09-15T04:55:26.739Z,96735.63
2022-09-15T04:56:28.283Z,96731.88
2022-09-15T04:57:29.871Z,96742.84
2022-09-15T04:58:31.827Z,96745.31
2022-09-15T04:59:33.628Z,96737.63
2022-09-15T05:00:43.038Z,96738.44
2022-09-15T05:01:45.290Z,96743.94
2022-09-15T05:02:46.813Z,96742.47
2022-09-15T05:03:48.861Z,96734.41
2022-09-15T05:04:51.670Z,96740.69
2022-09-15T05:05:53.168Z,96736.09
2022-09-15T05:06:54.698Z,96734.22
2022-09-15T05:07:56.236Z,96738.09
2022-09-15T05:08:58.654Z,96736.56
2022-09-15T05:10:00.198Z,96739.75
2022-09-15T05:11:04.477Z,96734.41
2022-09-15T05:12:06.384Z,96735.59
2022-09-15T05:13:07.885Z,96732.84
2022-09-15T05:14:10.770Z,96737.78
2022-09-15T05:15:12.478Z,96737.28
2022-09-15T05:16:17.464Z,96742.31
2022-09-15T05:17:19.018Z,96733.47
2022-09-15T05:18:20.709Z,96740.47
2022-09-15T05:19:22.300Z,96741.19
2022-09-15T05:20:24.140Z,96742.81
2022-09-15T05:21:26.838Z,96739.75
2022-09-15T05:22:28.509Z,96742.78
2022-09-15T05:23:30.200Z,96738.91
2022-09-15T05:24:31.802Z,96735.47
2022-09-15T05:25:33.319Z,96732.41
2022-09-15T05:26:34.945Z,96729.56
2022-09-15T05:27:36.610Z,96734.13
2022-09-15T05:28:38.675Z,96727.88
2022-09-15T05:29:40.166Z,96724.78
2022-09-15T05:30:44.372Z,96729.13
2022-09-15T05:31:46.282Z,96724.56
2022-09-15T05:32:47.919Z,96730.41
2022-09-15T05:33:50.764Z,96733.63
2022-09-15T05:34:52.306Z,96731.38
2022-09-15T05:35:55.318Z,96743.88
2022-09-15T05:36:57.176Z,96738.88
2022-09-15T05:37:58.795Z,96740.09
2022-09-15T05:39:01.799Z,96739.34
2022-09-15T05:40:08.227Z,96740.16
2022-09-15T05:41:12.332Z,96735.88
2022-09-15T05:42:13.847Z,96730.75
2022-09-15T05:43:15.959Z,96720.66
2022-09-15T05:44:17.629Z,96724.56
2022-09-15T05:45:19.172Z,96720.69
2022-09-15T05:46:20.903Z,96712.94
2022-09-15T05:47:22.813Z,96711.03
2022-09-15T05:48:24.611Z,96715.31
2022-09-15T05:49:26.275Z,96710.63
2022-09-15T05:50:27.792Z,96702.44
2022-09-15T05:51:30.266Z,96705.19
2022-09-15T05:52:31.889Z,96700.53
2022-09-15T05:53:35.271Z,96699.31
2022-09-15T05:54:36.866Z,96701.22
2022-09-15T05:55:38.481Z,96699.69
2022-09-15T05:56:40.043Z,96703.59
2022-09-15T05:57:41.703Z,96705.56
2022-09-15T05:58:45.963Z,96699.00
2022-09-15T05:59:47.523Z,96696.69
2022-09-15T06:00:49.341Z,96702.91
2022-09-15T06:01:51.588Z,96693.19
2022-09-15T06:02:53.296Z,96695.88
2022-09-15T06:03:56.404Z,96689.69
2022-09-15T06:04:58.381Z,96683.88
2022-09-15T06:06:01.625Z,96695.09
2022-09-15T06:07:03.195Z,96688.03
2022-09-15T06:08:04.800Z,96692.69
2022-09-15T06:09:06.615Z,96687.25
2022-09-15T06:10:09.314Z,96683.44
2022-09-15T06:11:15.667Z,96679.97
2022-09-15T06:12:18.411Z,96681.13
2022-09-15T06:13:20.081Z,96683.84
2022-09-15T06:14:21.617Z,96687.31
2022-09-15T06:15:23.856Z,96688.81
2022-09-15T06:16:25.508Z,96693.78
2022-09-15T06:17:27.285Z,96692.88
2022-09-15T06:18:28.840Z,96694.69
2022-09-15T06:19:30.462Z,96695.41
2022-09-15T06:20:32.027Z,96690.28
2022-09-15T06:21:34.231Z,96695.25
2022-09-15T06:22:35.770Z,96692.78
2022-09-15T06:23:38.134Z,96684.44
2022-09-15T06:24:39.662Z,96688.97
2022-09-15T06:25:41.165Z,96695.16
2022-09-15T06:26:42.726Z,96693.88
2022-09-15T06:27:44.314Z,96692.16
2022-09-15T06:28:58.378Z,96689.69
2022-09-15T06:29:59.923Z,96697.25
2022-09-15T06:31:01.526Z,96690.88
2022-09-15T06:32:03.085Z,96683.69
2022-09-15T06:33:04.686Z,96690.63
2022-09-15T06:34:06.710Z,96691.97
2022-09-15T06:35:08.807Z,96686.00
2022-09-15T06:36:12.372Z,96692.88
2022-09-15T06:37:14.351Z,96688.81
2022-09-15T06:38:15.883Z,96696.94
2022-09-15T06:39:17.380Z,96686.72
2022-09-15T06:40:19.114Z,96687.13
2022-09-15T06:41:21.326Z,96680.19
2022-09-15T06:42:22.840Z,96676.19
2022-09-15T06:43:25.153Z,96677.22
2022-09-15T06:44:26.661Z,96671.66
2022-09-15T06:45:29.839Z,96676.09
2022-09-15T06:46:31.517Z,96678.00
2022-09-15T06:47:34.171Z,96675.66
2022-09-15T06:48:37.075Z,96672.88
2022-09-15T06:49:38.622Z,96673.56
2022-09-15T06:50:40.173Z,96671.41
2022-09-15T06:51:42.090Z,96667.56
2022-09-15T06:52:43.659Z,96670.78
2022-09-15T06:53:45.728Z,96662.81
2022-09-15T06:54:47.279Z,96663.22
2022-09-15T06:55:48.870Z,96666.19
2022-09-15T06:56:50.505Z,96657.66
2022-09-15T06:57:52.015Z,96659.56
2022-09-15T06:58:53.994Z,96666.81
2022-09-15T06:59:55.730Z,96662.06
2022-09-15T07:01:06.057Z,96665.47
2022-09-15T07:02:09.613Z,96667.97
2022-09-15T07:03:11.451Z,96675.13
2022-09-15T07:04:13.062Z,96678.38
2022-09-15T07:05:14.622Z,96676.78
2022-09-15T07:06:16.286Z,96686.63
2022-09-15T07:07:17.976Z,96691.69
2022-09-15T07:08:19.554Z,96682.72
2022-09-15T07:09:21.095Z,96676.06
2022-09-15T07:10:22.643Z,96664.22
2022-09-15T07:11:25.164Z,96667.97
2022-09-15T07:12:26.753Z,96666.94
2022-09-15T07:13:28.301Z,96663.41
2022-09-15T07:14:30.086Z,96664.53
2022-09-15T07:15:32.029Z,96666.06
2022-09-15T07:16:33.801Z,96670.44
2022-09-15T07:17:37.363Z,96666.47
2022-09-15T07:18:43.077Z,96666.31
2022-09-15T07:19:45.943Z,96664.31
2022-09-15T07:20:47.592Z,96666.41
2022-09-15T07:21:50.359Z,96665.25
2022-09-15T07:22:51.872Z,96667.91
2022-09-15T07:23:57.376Z,96667.66
2022-09-15T07:24:58.892Z,96659.75
2022-09-15T07:26:07.425Z,96664.47
2022-09-15T07:27:09.595Z,96659.06
2022-09-15T07:28:12.486Z,96657.53
2022-09-15T07:29:14.022Z,96658.69
2022-09-15T07:30:15.814Z,96655.53
2022-09-15T07:31:20.565Z,96666.06
2022-09-15T07:32:22.115Z,96667.53
2022-09-15T07:33:23.762Z,96668.03
2022-09-15T07:34:25.432Z,96672.53
2022-09-15T07:35:27.105Z,96681.66
2022-09-15T07:36:29.603Z,96683.47
2022-09-15T07:37:32.439Z,96682.69
2022-09-15T07:38:35.470Z,96679.75
2022-09-15T07:39:37.026Z,96678.31
2022-09-15T07:40:38.910Z,96682.00
2022-09-15T07:41:40.532Z,96684.41
2022-09-15T07:42:43.649Z,96680.63
2022-09-15T07:43:47.640Z,96680.91
2022-09-15T07:44:49.186Z,96686.22
2022-09-15T07:45:51.244Z,96692.38
2022-09-15T07:46:52.847Z,96689.56
2022-09-15T07:47:54.747Z,96682.97
2022-09-15T07:48:56.574Z,96683.25
2022-09-15T07:49:58.300Z,96681.34
2022-09-15T07:51:00.069Z,96680.47
2022-09-15T07:52:02.420Z,96675.81
2022-09-15T07:53:04.284Z,96679.81
2022-09-15T07:54:05.861Z,96672.50
2022-09-15T07:55:08.201Z,96675.69
2022-09-15T07:56:10.080Z,96672.69
2022-09-15T07:57:11.632Z,96677.84
2022-09-15T07:58:13.252Z,96665.69
2022-09-15T07:59:14.872Z,96663.25
2022-09-15T08:00:17.506Z,96671.84
2022-09-15T08:01:20.302Z,96668.56
2022-09-15T08:02:22.259Z,96667.13
2022-09-15T08:03:23.920Z,96668.81
2022-09-15T08:04:25.424Z,96665.41
2022-09-15T08:05:28.509Z,96669.09
2022-09-15T08:06:30.080Z,96669.94
2022-09-15T08:07:31.701Z,96666.94
2022-09-15T08:08:33.206Z,96672.16
2022-09-15T08:09:34.692Z,96673.84
2022-09-15T08:10:39.958Z,96682.09
2022-09-15T08:11:44.331Z,96681.44
2022-09-15T08:12:45.890Z,96681.22
2022-09-15T08:13:49.767Z,96679.03
2022-09-15T08:14:51.290Z,96672.88
2022-09-15T08:15:52.900Z,96676.06
2022-09-15T08:16:54.540Z,96678.59
2022-09-15T08:17:56.036Z,96681.44
2022-09-15T08:18:57.746Z,96672.84
2022-09-15T08:19:59.268Z,96673.16
2022-09-15T08:21:05.280Z,96672.94
2022-09-15T08:22:06.957Z,96673.88
2022-09-15T08:23:09.608Z,96671.41
2022-09-15T08:24:11.122Z,96669.97
2022-09-15T08:25:12.988Z,96673.56
2022-09-15T08:26:14.741Z,96672.50
2022-09-15T08:27:16.291Z,96669.06
2022-09-15T08:28:17.908Z,96667.50
2022-09-15T08:29:19.666Z,96667.94
2022-09-15T08:30:21.903Z,96660.34
2022-09-15T08:31:24.581Z,96656.94
2022-09-15T08:32:26.242Z,96656.09
2022-09-15T08:33:28.820Z,96653.25
2022-09-15T08:34:31.039Z,96648.19
2022-09-15T08:35:33.912Z,96652.16
2022-09-15T08:36:35.602Z,96641.56
2022-09-15T08:37:37.176Z,96647.88
2022-09-15T08:38:44.285Z,96643.41
2022-09-15T08:39:46.678Z,96648.44
2022-09-15T08:40:48.827Z,96645.44
2022-09-15T08:41:53.420Z,96643.88
2022-09-15T08:43:00.002Z,96635.31
2022-09-15T08:44:21.613Z,96639.41
2022-09-15T08:45:29.341Z,96632.41
2022-09-15T08:46:41.214Z,96634.09
2022-09-15T08:47:47.931Z,96632.31
2022-09-15T08:49:02.793Z,96632.09
2022-09-15T08:50:14.926Z,96630.63
2022-09-15T08:51:26.208Z,96631.09
2022-09-15T08:52:46.258Z,96631.88
2022-09-15T08:53:53.489Z,96629.97
2022-09-15T08:54:58.531Z,96635.31
2022-09-15T08:56:09.327Z,96627.50
2022-09-15T08:57:18.786Z,96628.91
2022-09-15T08:58:24.155Z,96613.69
2022-09-15T08:59:34.258Z,96611.91
2022-09-15T09:00:35.789Z,96612.84
2022-09-15T09:02:23.447Z,96605.34
2022-09-15T09:04:06.850Z,96610.25
2022-09-15T09:05:37.015Z,96606.38
2022-09-15T09:06:44.873Z,96609.84
2022-09-15T09:08:14.185Z,96607.91
2022-09-15T09:09:25.905Z,96608.53
2022-09-15T09:10:53.551Z,96600.09
2022-09-15T09:12:19.707Z,96597.19
2022-09-15T09:13:46.622Z,96595.84
2022-09-15T09:15:11.711Z,96589.59
2022-09-15T09:16:41.944Z,96578.72
2022-09-15T09:18:04.802Z,96572.53
2022-09-15T09:19:16.255Z,96575.28
2022-09-15T09:20:27.538Z,96583.13
2022-09-15T09:21:29.604Z,96580.16
2022-09-15T09:22:36.629Z,96579.34
2022-09-15T09:23:54.378Z,96579.94
2022-09-15T09:24:58.205Z,96580.22
2022-09-15T09:26:02.136Z,96571.66
2022-09-15T09:27:04.677Z,96576.09
2022-09-15T09:28:13.840Z,96572.63
2022-09-15T09:29:18.788Z,96574.19
2022-09-15T09:30:23.294Z,96566.22
2022-09-15T09:31:27.433Z,96564.69
2022-09-15T09:32:49.546Z,96573.47
2022-09-15T09:33:57.996Z,96568.69
2022-09-15T09:35:05.283Z,96564.72
2022-09-15T09:36:11.013Z,96565.34
2022-09-15T09:37:15.729Z,96557.97
2022-09-15T09:38:30.512Z,96557.81
2022-09-15T09:39:32.149Z,96560.41
2022-09-15T09:40:34.160Z,96543.88
2022-09-15T09:41:36.400Z,96549.41
2022-09-15T09:42:39.241Z,96548.19
2022-09-15T09:43:43.183Z,96543.88
2022-09-15T09:44:46.756Z,96545.25
2022-09-15T09:45:48.501Z,96538.94
2022-09-15T09:46:50.086Z,96543.22
2022-09-15T09:47:52.872Z,96542.94
2022-09-15T09:49:31.234Z,96544.91
2022-09-15T09:50:38.857Z,96541.41
2022-09-15T09:52:03.464Z,96534.78
2022-09-15T09:53:27.583Z,96534.34
2022-09-15T09:54:32.326Z,96528.94
2022-09-15T09:55:33.871Z,96532.13
2022-09-15T09:56:35.497Z,96531.22
2022-09-15T09:57:40.498Z,96528.16
2022-09-15T09:58:42.938Z,96525.97
2022-09-15T09:59:50.265Z,96522.94
2022-09-15T10:00:53.022Z,96525.34
2022-09-15T10:02:13.114Z,96528.38
2022-09-15T10:03:22.732Z,96527.47
2022-09-15T10:04:24.314Z,96520.72
2022-09-15T10:05:26.000Z,96525.34
2022-09-15T10:06:30.649Z,96525.44
2022-09-15T10:07:34.224Z,96525.47
2022-09-15T10:08:37.000Z,96519.44
2022-09-15T10:09:39.074Z,96524.06
2022-09-15T10:10:50.443Z,96517.31
2022-09-15T10:11:55.137Z,96517.00
2022-09-15T10:12:57.509Z,96515.78
2022-09-15T10:13:59.114Z,96517.63
2022-09-15T10:15:04.569Z,96514.28
2022-09-15T10:16:06.937Z,96522.53
2022-09-15T10:17:14.908Z,96520.38
2022-09-15T10:18:30.795Z,96513.63
2022-09-15T10:19:36.660Z,96518.22
2022-09-15T10:20:50.175Z,96505.63
2022-09-15T10:21:51.835Z,96512.69
2022-09-15T10:23:03.053Z,96504.38
2022-09-15T10:24:24.141Z,96499.00
2022-09-15T10:25:39.744Z,96505.28
2022-09-15T10:26:50.955Z,96496.41
2022-09-15T10:28:08.889Z,96495.44
2022-09-15T10:29:13.288Z,96493.13
2022-09-15T10:30:14.859Z,96483.75
2022-09-15T10:31:31.910Z,96487.31
2022-09-15T10:32:33.513Z,96484.53
2022-09-15T10:33:37.291Z,96483.88
2022-09-15T10:34:38.854Z,96483.03
2022-09-15T10:35:42.637Z,96479.44
2022-09-15T10:36:44.386Z,96478.34
2022-09-15T10:38:11.917Z,96475.50
2022-09-15T10:39:31.448Z,96471.28
2022-09-15T10:40:48.127Z,96470.50
2022-09-15T10:42:02.734Z,96461.81
2022-09-15T10:43:22.829Z,96468.22
2022-09-15T10:44:59.105Z,96468.88
2022-09-15T10:46:09.895Z,96467.75
2022-09-15T10:47:21.796Z,96477.66
2022-09-15T10:48:45.227Z,96476.19
2022-09-15T10:50:16.441Z,96466.66
2022-09-15T10:51:54.963Z,96466.56
2022-09-15T10:53:21.326Z,96467.88
2022-09-15T10:55:00.181Z,96461.94
2022-09-15T10:56:27.453Z,96459.19
2022-09-15T10:57:47.435Z,96449.09
2022-09-15T10:59:16.639Z,96458.25
2022-09-15T11:00:24.133Z,96452.38
2022-09-15T11:01:28.622Z,96445.63
2022-09-15T11:02:44.107Z,96445.31
2022-09-15T11:04:13.428Z,96435.66
2022-09-15T11:05:23.003Z,96440.94
2022-09-15T11:06:40.062Z,96443.16
2022-09-15T11:08:19.249Z,96436.25
2022-09-15T11:09:33.403Z,96431.09
2022-09-15T11:11:08.813Z,96431.66
2022-09-15T11:12:51.628Z,96432.25
2022-09-15T11:14:08.505Z,96431.28
2022-09-15T11:15:46.647Z,96427.72
2022-09-15T11:17:06.774Z,96427.84
2022-09-15T11:18:29.681Z,96419.44
2022-09-15T11:19:31.184Z,96418.09
2022-09-15T11:21:01.182Z,96413.88
2022-09-15T11:22:16.991Z,96410.44
2022-09-15T11:23:32.732Z,96407.53
2022-09-15T11:24:59.156Z,96403.31
2022-09-15T11:26:17.119Z,96407.19
2022-09-15T11:27:25.450Z,96406.50
2022-09-15T11:28:34.073Z,96405.94
2022-09-15T11:29:48.030Z,96400.47
2022-09-15T11:31:21.208Z,96401.44
2022-09-15T11:32:55.783Z,96399.34
2022-09-15T11:34:19.731Z,96395.81
2022-09-15T11:35:39.197Z,96394.06
2022-09-15T11:37:05.123Z,96392.66
2022-09-15T11:38:30.934Z,96396.66
2022-09-15T11:39:46.315Z,96392.06
2022-09-15T11:40:56.618Z,96395.97
2022-09-15T11:42:15.625Z,96384.78
2022-09-15T11:43:33.012Z,96396.59
2022-09-15T11:44:40.028Z,96387.66
2022-09-15T11:45:48.809Z,96381.22
2022-09-15T11:47:05.365Z,96381.50
2022-09-15T11:48:45.436Z,96375.13
2022-09-15T11:50:42.813Z,96373.59
2022-09-15T11:51:54.618Z,96376.38
2022-09-15T11:53:09.762Z,96372.13
2022-09-15T11:54:17.793Z,96379.72
2022-09-15T11:55:25.269Z,96376.50
2022-09-15T11:56:33.568Z,96376.38
2022-09-15T11:57:43.705Z,96373.13
2022-09-15T11:59:03.852Z,96374.28
2022-09-15T12:00:14.731Z,96368.53
2022-09-15T12:01:20.231Z,96364.41
2022-09-15T12:02:51.647Z,96366.53
2022-09-15T12:04:04.182Z,96364.56
2022-09-15T12:05:46.203Z,96363.59
2022-09-15T12:08:41.008Z,96354.84
2022-09-15T12:09:42.857Z,96351.09
2022-09-15T12:10:49.026Z,96351.34
2022-09-15T12:11:58.419Z,96346.63
2022-09-15T12:13:01.191Z,96344.69
2022-09-15T12:14:06.283Z,96348.28
2022-09-15T12:15:15.021Z,96347.00
2022-09-15T12:16:17.450Z,96340.66
2022-09-15T12:17:39.035Z,96344.13
2022-09-15T12:19:14.594Z,96333.44
2022-09-15T12:20:23.666Z,96339.22
2022-09-15T12:21:33.997Z,96338.63
2022-09-15T12:22:55.827Z,96332.25
2022-09-15T12:24:00.021Z,96333.25
2022-09-15T12:25:03.685Z,96329.97
2022-09-15T12:26:15.545Z,96325.72
2022-09-15T12:27:19.568Z,96326.03
2022-09-15T12:28:27.608Z,96331.28
2022-09-15T12:29:41.183Z,96319.78
2022-09-15T12:30:43.882Z,96326.09
2022-09-15T12:31:45.871Z,96320.91
2022-09-15T12:32:48.598Z,96325.41
2022-09-15T12:33:57.613Z,96335.03
2022-09-15T12:35:17.690Z,96321.94
2022-09-15T12:36:34.603Z,96320.47
2022-09-15T12:37:52.407Z,96321.84
2022-09-15T12:38:54.077Z,96316.88
2022-09-15T12:39:56.046Z,96328.81
2022-09-15T12:40:59.622Z,96321.03
2022-09-15T12:42:01.065Z,96318.53
2022-09-15T12:43:16.338Z,96313.53
2022-09-15T12:44:34.948Z,96315.47
2022-09-15T12:45:37.133Z,96307.66
2022-09-15T12:46:39.426Z,96312.00
2022-09-15T12:48:10.137Z,96308.78
2022-09-15T12:49:17.997Z,96304.88
2022-09-15T12:50:19.493Z,96308.75
2022-09-15T12:51:26.330Z,96308.19
2022-09-15T12:52:29.288Z,96306.34
2022-09-15T12:53:46.473Z,96302.00
2022-09-15T12:54:55.823Z,96300.69
2022-09-15T12:56:25.108Z,96305.47
2022-09-15T12:57:32.460Z,96306.13
2022-09-15T12:58:42.052Z,96302.31
2022-09-15T12:59:43.593Z,96299.09
2022-09-15T13:01:13.887Z,96298.81
2022-09-15T13:02:44.626Z,96299.47
2022-09-15T13:03:46.367Z,96291.34
2022-09-15T13:04:55.204Z,96289.25
2022-09-15T13:06:24.235Z,96293.72
2022-09-15T13:07:35.144Z,96285.16
2022-09-15T13:08:36.583Z,96288.00
2022-09-15T13:10:02.319Z,96293.81
2022-09-15T13:11:06.800Z,96281.63